Terminal Aerodrome Forecast
Issued by NWS

Home | Current Version | Previous Version | Text Only | Print | Product List | Glossary On
Versions: 1 2 3 4 5 6 7 8 9 10 11 12 13
071
FTUS45 KABQ 212322
TAFAEG
TAF
KAEG 212322Z 2200/2224 29020G30KT P6SM SCT060 BKN100
     FM220900 31015KT P6SM SKC
     FM221500 32009KT P6SM FEW250=

USA.gov is the U.S. government's official web portal to all federal, state and local government web resources and services.